Beauregard Regional Airport
KDRI : rendu visible

Aérodrome :











RETROUVEZ-NOUS SUR...

 
LOGIN :

S'inscrire | Disclaimer

   EN    FR    IT 

 









Légende :    VFR   VFR Marginal   IFR   IFR Intensif   IFR Très Intensif
Visi : 
Plafond : 
>= 8 km
>= 3000ft
5 à 8 km
1000 à 3000 ft
1500m à 5 km
500 à 1000 ft
800 à 1500m
200 à 500 ft
< 800m
< 200 ft
Symboles :   Orages  Brouillard  Fortes neiges  Fortes précipitations  Vent > 20 kt







- Altitude de l'aérodrome : 202 ft


KDRI - Beauregard Regional

DERNIER METAR :
  • 240715Z AUTO 00000KT 10SM CLR 23/22 A3008 RMK AO2 T02300221

METARs EXPIRÉS :
  • 240655Z AUTO 00000KT 10SM CLR 23/22 A3008 RMK AO2 T02300222
  • 240635Z AUTO 00000KT 10SM CLR 23/23 A3009 RMK AO2 T02320225
  • 240615Z AUTO 00000KT 10SM CLR 23/23 A3009 RMK AO2 T02330225
  • 240555Z AUTO 00000KT 10SM CLR 24/23 A3009 RMK AO2 T02350226 10300 20235 403230235
  • 240535Z AUTO 00000KT 10SM CLR 24/23 A3009 RMK AO2 T02350226
  • 240515Z AUTO 00000KT 10SM SCT018 24/23 A3009 RMK AO2 T02360228
  • 240455Z AUTO 00000KT 10SM SCT018 24/23 A3010 RMK AO2 T02390230
  • 240435Z AUTO 00000KT 10SM CLR 24/23 A3010 RMK AO2 T02380230
  • 240415Z AUTO 00000KT 10SM CLR 24/23 A3009 RMK AO2 T02410231

TAF N/A
FIR KZHU / Amérique du Nord



MET'MAP, la Météo Aéronautique d'un coup d'oeil ! - Copyright ORBIFLY Décembre 2007 - Disclaimer

ORBIFLY MET'MAP TEAM :

Programmation & Développement : Alexandra Zaïnal
Conception & Développement : Baudouin d'Aumeries
Co-Programmation & Développement : Marc-Olivier Méhu
Soutien technique & logistique : Manuel Goepfert

Contact : metmap@orbifly.com




SOURCES & CREDITS :

   NOAA       Earth
Advisory